createdAt,value
2023-01-19T00:04:28.113Z,8.68
2023-01-19T00:09:31.635Z,8.70
2023-01-19T00:14:33.758Z,9.93
2023-01-19T00:19:35.857Z,7.15
2023-01-19T00:24:39.457Z,9.38
2023-01-19T00:29:41.561Z,7.82
2023-01-19T00:34:43.711Z,8.15
2023-01-19T00:39:47.324Z,7.50
2023-01-19T00:44:49.440Z,7.10
2023-01-19T00:49:51.571Z,6.38
2023-01-19T00:54:55.017Z,7.10
2023-01-19T00:59:57.159Z,6.55
2023-01-19T01:04:59.791Z,5.90
2023-01-19T01:10:03.422Z,6.13
2023-01-19T01:15:07.124Z,6.20
2023-01-19T01:20:11.056Z,7.13
2023-01-19T01:25:16.068Z,5.57
2023-01-19T01:30:19.275Z,6.25
2023-01-19T01:35:21.451Z,5.95
2023-01-19T01:40:25.007Z,5.20
2023-01-19T01:45:32.761Z,5.75
2023-01-19T01:50:38.587Z,4.65
2023-01-19T01:55:46.542Z,5.78
2023-01-19T02:00:51.851Z,6.07
2023-01-19T02:05:55.416Z,4.18
2023-01-19T02:11:01.707Z,4.70
2023-01-19T02:16:07.657Z,5.23
2023-01-19T02:21:14.449Z,6.45
2023-01-19T02:26:20.990Z,4.03
2023-01-19T02:31:23.757Z,4.72
2023-01-19T02:36:29.322Z,3.95
2023-01-19T02:41:38.482Z,4.13
2023-01-19T02:46:40.646Z,5.05
2023-01-19T02:51:44.073Z,4.63
2023-01-19T02:57:11.219Z,4.43
2023-01-19T03:02:26.847Z,4.43
2023-01-19T03:07:42.371Z,3.25
2023-01-19T03:12:52.699Z,3.42
2023-01-19T03:17:58.075Z,3.83
2023-01-19T03:23:04.757Z,4.13
2023-01-19T03:28:08.392Z,4.95
2023-01-19T03:33:17.704Z,5.40
2023-01-19T03:38:25.307Z,5.78
2023-01-19T03:43:30.767Z,6.50
2023-01-19T03:48:33.798Z,5.80
2023-01-19T03:53:36.867Z,6.47
2023-01-19T03:58:40.419Z,5.53
2023-01-19T04:03:42.733Z,6.53
2023-01-19T04:08:45.421Z,6.65
2023-01-19T04:13:48.949Z,7.03
2023-01-19T04:18:51.064Z,6.40
2023-01-19T04:23:53.172Z,5.72
2023-01-19T04:28:57.772Z,7.28
2023-01-19T04:33:59.840Z,6.68
2023-01-19T04:39:01.969Z,6.82
2023-01-19T04:44:05.660Z,7.10
2023-01-19T04:49:08.619Z,6.45
2023-01-19T04:54:12.351Z,7.65
2023-01-19T04:59:15.920Z,7.85
2023-01-19T05:04:17.994Z,8.52
2023-01-19T05:09:20.780Z,8.40
2023-01-19T05:14:24.375Z,7.03
2023-01-19T05:19:26.539Z,7.45
2023-01-19T05:24:28.654Z,6.93
2023-01-19T05:29:32.294Z,7.95
2023-01-19T05:34:34.456Z,7.75
2023-01-19T05:39:36.599Z,8.23
2023-01-19T05:44:40.116Z,7.13
2023-01-19T05:49:42.304Z,7.53
2023-01-19T05:54:44.617Z,8.20
2023-01-19T05:59:48.158Z,7.75
2023-01-19T06:04:50.287Z,8.40
2023-01-19T06:09:52.344Z,7.63
2023-01-19T06:14:55.911Z,8.40
2023-01-19T06:19:58.102Z,8.13
2023-01-19T06:25:00.256Z,8.07
2023-01-19T06:30:04.278Z,8.40
2023-01-19T06:35:09.761Z,8.23
2023-01-19T06:40:14.316Z,7.88
2023-01-19T06:45:18.302Z,8.38
2023-01-19T06:50:20.481Z,8.63
2023-01-19T06:55:22.572Z,7.00
2023-01-19T07:00:28.908Z,7.60
2023-01-19T07:05:30.973Z,7.30
2023-01-19T07:11:26.217Z,7.72
2023-01-19T07:15:56.635Z,8.32
2023-01-19T07:20:59.752Z,8.25
2023-01-19T07:26:01.926Z,11.52
2023-01-19T07:31:06.162Z,11.10
2023-01-19T07:36:11.206Z,7.25
2023-01-19T07:41:13.310Z,6.63
2023-01-19T07:46:16.888Z,7.10
2023-01-19T07:51:19.147Z,6.97
2023-01-19T07:56:23.161Z,6.88
2023-01-19T08:01:26.795Z,10.68
2023-01-19T08:06:34.458Z,7.32
2023-01-19T08:11:36.701Z,8.35
2023-01-19T08:16:40.477Z,6.22
2023-01-19T08:21:42.698Z,5.57
2023-01-19T08:26:44.998Z,4.82
2023-01-19T08:31:48.584Z,5.75
2023-01-19T08:36:50.849Z,4.88
2023-01-19T08:41:53.385Z,4.30
2023-01-19T08:46:56.896Z,4.40
2023-01-19T08:51:58.997Z,4.50
2023-01-19T08:57:01.095Z,4.18
2023-01-19T09:02:06.492Z,4.38
2023-01-19T09:07:08.636Z,3.83
2023-01-19T09:12:10.756Z,3.50
2023-01-19T09:17:14.267Z,3.45
2023-01-19T09:22:16.392Z,4.00
2023-01-19T09:27:21.499Z,3.72
2023-01-19T09:32:25.002Z,2.40
2023-01-19T09:37:30.002Z,1.42
2023-01-19T09:42:40.513Z,2.17
2023-01-19T09:47:45.593Z,1.00
2023-01-19T09:52:59.035Z,1.63
2023-01-19T09:58:02.411Z,2.25
2023-01-19T10:03:15.317Z,3.80
2023-01-19T10:08:24.501Z,3.97
2023-01-19T10:13:36.580Z,4.20
2023-01-19T10:18:44.378Z,3.67
2023-01-19T10:23:50.965Z,3.60
2023-01-19T10:28:57.825Z,2.17
2023-01-19T10:34:01.503Z,2.25
2023-01-19T10:39:04.999Z,2.22
2023-01-19T10:44:07.266Z,1.35
2023-01-19T10:49:25.630Z,1.40
2023-01-19T10:54:31.455Z,1.83
2023-01-19T10:59:36.588Z,1.90
2023-01-19T11:04:40.110Z,1.88
2023-01-19T11:09:42.260Z,1.67
2023-01-19T11:14:45.000Z,1.48
2023-01-19T11:19:58.001Z,1.88
2023-01-19T11:25:01.576Z,1.77
2023-01-19T11:30:08.876Z,1.15
2023-01-19T11:40:34.156Z,1.20
2023-01-19T11:45:36.695Z,1.42
2023-01-19T11:50:44.769Z,1.40
2023-01-19T11:55:54.989Z,1.50
2023-01-19T12:01:02.391Z,1.05
2023-01-19T12:06:07.639Z,1.08
2023-01-19T12:11:16.445Z,1.50
2023-01-19T12:16:23.465Z,1.00
2023-01-19T12:21:25.687Z,1.33
2023-01-19T12:26:37.097Z,1.90
2023-01-19T12:31:40.474Z,1.52
2023-01-19T12:36:42.739Z,3.03
2023-01-19T12:41:46.712Z,3.50
2023-01-19T12:46:51.778Z,1.50
2023-01-19T12:52:11.090Z,1.30
2023-01-19T12:57:23.409Z,1.25
2023-01-19T13:02:53.673Z,1.20
2023-01-19T13:08:49.474Z,1.30
2023-01-19T13:14:24.834Z,1.45
2023-01-19T13:19:46.016Z,1.33
2023-01-19T13:25:13.402Z,1.70
2023-01-19T13:30:19.471Z,1.35
2023-01-19T13:35:24.059Z,2.92
2023-01-19T13:40:34.201Z,1.15
2023-01-19T13:45:37.818Z,1.30
2023-01-19T13:50:41.547Z,0.98
2023-01-19T13:55:43.672Z,1.60
2023-01-19T14:00:46.026Z,1.40
2023-01-19T14:05:52.976Z,0.90
2023-01-19T14:11:02.572Z,1.42
2023-01-19T14:16:07.000Z,1.00
2023-01-19T14:21:12.226Z,1.13
2023-01-19T14:26:40.929Z,1.52
2023-01-19T14:31:44.223Z,1.05
2023-01-19T14:36:51.778Z,1.05
2023-01-19T14:41:59.537Z,1.35
2023-01-19T14:47:02.197Z,1.08
2023-01-19T14:52:08.602Z,0.82
2023-01-19T14:57:12.612Z,0.95
2023-01-19T15:02:14.910Z,0.90
2023-01-19T15:07:19.488Z,1.30
2023-01-19T15:12:26.201Z,1.65
2023-01-19T15:17:28.595Z,1.02
2023-01-19T15:22:32.295Z,1.20
2023-01-19T15:27:34.467Z,1.42
2023-01-19T15:32:36.805Z,1.00
2023-01-19T15:37:40.463Z,0.95
2023-01-19T15:42:43.162Z,1.50
2023-01-19T15:47:45.429Z,1.15
2023-01-19T15:52:49.060Z,1.08
2023-01-19T15:57:51.210Z,0.90
2023-01-19T16:02:53.403Z,1.25
2023-01-19T16:07:57.947Z,0.90
2023-01-19T16:12:59.986Z,1.30
2023-01-19T16:18:02.131Z,1.67
2023-01-19T16:23:14.751Z,3.50
2023-01-19T16:28:17.202Z,5.93
2023-01-19T16:33:20.506Z,2.30
2023-01-19T16:38:24.209Z,1.73
2023-01-19T16:43:28.277Z,1.80
2023-01-19T16:48:30.748Z,1.90
2023-01-19T16:53:34.551Z,2.00
2023-01-19T16:58:36.770Z,1.65
2023-01-19T17:03:39.652Z,1.88
2023-01-19T17:08:44.075Z,1.98
2023-01-19T17:13:46.416Z,2.72
2023-01-19T17:18:48.541Z,2.40
2023-01-19T17:23:53.479Z,1.90
2023-01-19T17:28:58.778Z,2.20
2023-01-19T17:34:01.897Z,2.88
2023-01-19T17:39:09.652Z,2.65
2023-01-19T17:44:12.067Z,2.00
2023-01-19T17:49:14.242Z,4.57
2023-01-19T17:54:19.042Z,1.90
2023-01-19T17:59:21.121Z,4.05
2023-01-19T18:04:24.000Z,1.52
2023-01-19T18:09:28.194Z,2.38
2023-01-19T18:14:31.894Z,1.80
2023-01-19T18:19:35.226Z,1.50
2023-01-19T18:24:40.536Z,1.85
2023-01-19T18:29:44.244Z,5.38
2023-01-19T18:34:46.763Z,2.70
2023-01-19T18:39:52.868Z,1.60
2023-01-19T18:44:55.055Z,1.90
2023-01-19T18:50:12.579Z,2.80
2023-01-19T18:55:20.307Z,5.13
2023-01-19T19:00:22.906Z,2.25
2023-01-19T19:05:25.173Z,1.77
2023-01-19T19:10:37.024Z,1.50
2023-01-19T19:15:39.577Z,1.65
2023-01-19T19:20:51.155Z,3.28
2023-01-19T19:26:00.708Z,2.83
2023-01-19T19:31:05.620Z,2.65
2023-01-19T19:36:09.502Z,10.57
2023-01-19T19:41:15.396Z,3.20
2023-01-19T19:46:19.391Z,3.63
2023-01-19T19:51:23.612Z,4.82
2023-01-19T19:56:28.693Z,4.05
2023-01-19T20:01:34.574Z,9.43
2023-01-19T20:06:38.976Z,3.85
2023-01-19T20:11:43.884Z,3.05
2023-01-19T20:16:46.058Z,4.25
2023-01-19T20:21:48.136Z,2.38
2023-01-19T20:26:52.970Z,3.55
2023-01-19T20:31:57.841Z,3.00
2023-01-19T20:37:15.201Z,3.03
2023-01-19T20:42:18.902Z,4.80
2023-01-19T20:47:21.485Z,4.82
2023-01-19T20:52:23.626Z,4.97
2023-01-19T20:57:27.133Z,4.47
2023-01-19T21:02:29.268Z,3.35
2023-01-19T21:07:31.412Z,4.00
2023-01-19T21:12:40.044Z,4.53
2023-01-19T21:17:43.758Z,3.17
2023-01-19T21:22:47.323Z,4.10
2023-01-19T21:27:50.911Z,4.00
2023-01-19T21:32:53.172Z,3.70
2023-01-19T21:37:55.498Z,3.42
2023-01-19T21:42:59.158Z,3.08
2023-01-19T21:48:01.289Z,3.10
2023-01-19T21:53:03.562Z,2.58
2023-01-19T21:58:07.162Z,3.03
2023-01-19T22:03:10.272Z,3.42
2023-01-19T22:08:12.453Z,2.85
2023-01-19T22:13:16.092Z,2.90
2023-01-19T22:18:18.281Z,2.83
2023-01-19T22:23:20.459Z,2.78
2023-01-19T22:28:24.057Z,2.80
2023-01-19T22:33:28.431Z,2.42
2023-01-19T22:38:30.508Z,2.90
2023-01-19T22:43:34.024Z,2.92
2023-01-19T22:48:36.629Z,2.58
2023-01-19T22:53:38.784Z,2.60
2023-01-19T22:58:43.119Z,2.97
2023-01-19T23:03:45.308Z,2.97
2023-01-19T23:08:47.993Z,2.92
2023-01-19T23:13:51.862Z,2.88
2023-01-19T23:18:55.575Z,2.67
2023-01-19T23:24:02.622Z,2.65
2023-01-19T23:34:10.472Z,2.45
2023-01-19T23:39:16.092Z,2.55
2023-01-19T23:44:19.847Z,2.33
2023-01-19T23:49:22.058Z,2.63
2023-01-19T23:54:24.303Z,2.40
2023-01-19T23:59:27.862Z,2.20
